Time;durP1;ratioP1;P1;durP2;ratioP2;P2;SDS_P1;SDS_P2;PMS_P1;PMS_P2;Temp;Humidity;BMP_temperature;BMP_pressure;BME280_temperature;BME280_humidity;BME280_pressure;Samples;Min_cycle;Max_cycle;Signal;HPM_P1;HPM_P2
2021/12/19 00:00:15;;;;;;;66.33;33.87;;;1.70;99.90;;;;;;6246368;23;20008;-78
2021/12/19 00:10:23;;;;;;;59.03;33.07;;;1.70;99.90;;;;;;6246488;23;20135;-74
2021/12/19 00:12:51;;;;;;;60.30;33.83;;;1.70;99.90;;;;;;6218543;23;20039;-78
2021/12/19 00:15:17;;;;;;;66.83;34.37;;;1.70;99.90;;;;;;6246193;23;20356;-78
2021/12/19 00:17:44;;;;;;;57.63;34.60;;;1.60;99.90;;;;;;6245610;23;20020;-78
2021/12/19 00:20:10;;;;;;;52.70;34.10;;;1.60;99.90;;;;;;6219188;23;20452;-78
2021/12/19 00:22:36;;;;;;;58.10;34.83;;;1.60;99.90;;;;;;6219144;23;20099;-78
2021/12/19 00:25:02;;;;;;;55.67;33.17;;;1.60;99.90;;;;;;6245427;23;20039;-77
2021/12/19 00:27:28;;;;;;;53.40;33.03;;;1.60;99.90;;;;;;6245688;23;20654;-78
2021/12/19 00:29:54;;;;;;;54.17;32.73;;;1.60;99.90;;;;;;6246034;23;20035;-78
2021/12/19 00:32:20;;;;;;;47.93;30.87;;;1.70;99.90;;;;;;6219195;23;20010;-78
2021/12/19 00:34:45;;;;;;;49.27;30.37;;;1.60;99.90;;;;;;6246127;23;20004;-79
2021/12/19 00:37:11;;;;;;;49.37;32.03;;;1.50;99.90;;;;;;6245612;23;20011;-79
2021/12/19 00:39:37;;;;;;;49.40;32.17;;;1.50;99.90;;;;;;6245962;23;20005;-78
2021/12/19 00:42:07;;;;;;;53.93;34.00;;;1.50;99.90;;;;;;6245940;23;20008;-79
2021/12/19 00:44:35;;;;;;;56.17;34.43;;;1.40;99.90;;;;;;6219597;23;20413;-79
2021/12/19 00:47:07;;;;;;;53.00;33.87;;;1.50;99.90;;;;;;6246173;23;20092;-79
2021/12/19 00:49:34;;;;;;;;;;;1.60;99.90;;;;;;6220062;23;20348;-79
2021/12/19 00:52:00;;;;;;;50.00;32.03;;;1.60;99.90;;;;;;6246499;23;19907;-79
2021/12/19 00:54:26;;;;;;;49.67;32.33;;;1.60;99.90;;;;;;6246408;23;20024;-79
2021/12/19 00:56:51;;;;;;;48.40;31.27;;;1.50;99.90;;;;;;6244714;23;20062;-79
2021/12/19 00:59:17;;;;;;;53.17;32.03;;;1.40;99.90;;;;;;6246032;23;20062;-79
2021/12/19 01:01:44;;;;;;;44.90;30.03;;;1.40;99.90;;;;;;6246281;23;20030;-79
2021/12/19 01:04:14;;;;;;;45.87;29.07;;;1.50;99.90;;;;;;6246209;23;20496;-79
2021/12/19 01:06:42;;;;;;;48.53;27.97;;;1.50;99.90;;;;;;6245976;23;20012;-79
2021/12/19 01:09:09;;;;;;;45.60;27.43;;;1.60;99.90;;;;;;6245815;23;20000;-79
2021/12/19 01:11:35;;;;;;;39.43;24.53;;;1.70;99.90;;;;;;6219142;23;20027;-78
2021/12/19 01:14:02;;;;;;;37.90;22.53;;;1.80;99.90;;;;;;6245932;23;20080;-78
2021/12/19 01:16:28;;;;;;;32.47;20.30;;;1.80;99.90;;;;;;6245787;23;20447;-79
2021/12/19 01:18:54;;;;;;;33.67;20.77;;;1.90;99.90;;;;;;6245774;23;20008;-79
2021/12/19 01:21:19;;;;;;;31.47;20.17;;;1.90;99.90;;;;;;6246008;23;20008;-79
2021/12/19 01:23:45;;;;;;;32.90;20.67;;;2.00;99.90;;;;;;6245748;23;20035;-79
2021/12/19 01:26:12;;;;;;;35.43;20.83;;;2.00;99.90;;;;;;6218907;23;20011;-79
2021/12/19 01:28:38;;;;;;;35.17;21.20;;;2.00;99.90;;;;;;6218970;23;20027;-79
2021/12/19 01:31:04;;;;;;;30.87;19.20;;;1.90;99.90;;;;;;6245730;23;19988;-79
2021/12/19 01:33:30;;;;;;;50.93;26.67;;;2.00;99.90;;;;;;6245803;23;20027;-79
2021/12/19 01:35:56;;;;;;;58.43;29.13;;;1.90;99.90;;;;;;6243663;23;20012;-79
2021/12/19 01:38:22;;;;;;;50.30;26.57;;;1.90;99.90;;;;;;6244933;23;20004;-79
2021/12/19 01:40:48;;;;;;;49.87;26.43;;;1.80;99.90;;;;;;6245069;23;20027;-79
2021/12/19 01:43:17;;;;;;;47.97;26.67;;;1.80;99.90;;;;;;6244968;23;20091;-79
2021/12/19 01:45:42;;;;;;;47.03;27.97;;;1.80;99.90;;;;;;6244619;23;20004;-78
2021/12/19 01:48:12;;;;;;;41.23;25.07;;;1.80;99.90;;;;;;6244890;23;20004;-79
2021/12/19 01:50:40;;;;;;;45.93;26.53;;;1.80;99.90;;;;;;6217897;23;20437;-78
2021/12/19 01:53:11;;;;;;;44.27;25.70;;;1.70;99.90;;;;;;6244842;23;20310;-79
2021/12/19 01:55:38;;;;;;;51.37;29.37;;;1.70;99.90;;;;;;6218478;23;20020;-79
2021/12/19 01:58:03;;;;;;;48.33;28.10;;;1.70;99.90;;;;;;6245423;23;20003;-79
2021/12/19 02:00:39;;;;;;;44.20;27.57;;;1.70;99.90;;;;;;6245576;23;20020;-78
2021/12/19 02:03:07;;;;;;;47.20;27.37;;;1.60;99.90;;;;;;6245618;23;20093;-79
2021/12/19 02:05:33;;;;;;;40.60;26.33;;;1.60;99.90;;;;;;6218782;23;20000;-78
2021/12/19 02:08:00;;;;;;;46.80;29.00;;;1.60;99.90;;;;;;6245573;23;20379;-79
2021/12/19 02:10:29;;;;;;;44.47;27.57;;;1.60;99.90;;;;;;6245655;23;20442;-79
2021/12/19 02:12:58;;;;;;;48.53;27.63;;;1.70;99.90;;;;;;6245576;23;20332;-79
2021/12/19 02:15:25;;;;;;;44.37;26.97;;;1.60;99.90;;;;;;6218756;23;20004;-78
2021/12/19 02:17:54;;;;;;;44.13;27.33;;;1.60;99.90;;;;;;6245367;23;20003;-78
2021/12/19 02:20:21;;;;;;;51.17;30.53;;;1.50;99.90;;;;;;6245520;23;20324;-78
2021/12/19 02:22:47;;;;;;;49.50;29.07;;;1.50;99.90;;;;;;6245531;23;20388;-78
2021/12/19 02:25:16;;;;;;;51.33;28.37;;;1.50;99.90;;;;;;6245597;23;19997;-79
2021/12/19 02:27:43;;;;;;;47.27;27.87;;;1.40;99.90;;;;;;6245293;23;20339;-78
2021/12/19 02:30:10;;;;;;;55.50;30.47;;;1.30;99.90;;;;;;6245511;23;20010;-78
2021/12/19 02:32:39;;;;;;;53.80;29.63;;;1.20;99.90;;;;;;6218465;23;20313;-79
2021/12/19 02:35:10;;;;;;;52.10;29.03;;;1.20;99.90;;;;;;6245605;23;20004;-78
2021/12/19 02:48:11;;;;;;;45.63;28.53;;;1.10;99.90;;;;;;6246655;23;20018;-79
2021/12/19 02:50:44;;;;;;;55.17;30.60;;;1.20;99.90;;;;;;6220551;23;20309;-78
2021/12/19 02:53:10;;;;;;;48.93;28.20;;;1.20;99.90;;;;;;6220582;23;20000;-78
2021/12/19 02:55:36;;;;;;;50.67;28.93;;;1.10;99.90;;;;;;6220490;23;20004;-79
2021/12/19 02:58:02;;;;;;;47.63;27.03;;;1.10;99.90;;;;;;6247429;23;20305;-79
2021/12/19 03:00:28;;;;;;;57.87;30.63;;;1.10;99.90;;;;;;6247366;23;20001;-78
2021/12/19 03:02:54;;;;;;;48.70;27.53;;;1.00;99.90;;;;;;6247331;23;20000;-79
2021/12/19 03:05:20;;;;;;;48.33;27.77;;;1.10;99.90;;;;;;6247272;23;20002;-78
2021/12/19 03:07:46;;;;;;;50.77;28.47;;;1.00;99.90;;;;;;6247160;23;20004;-78
2021/12/19 03:18:05;;;;;;;46.17;27.47;;;1.10;99.90;;;;;;6247165;23;20026;-78
2021/12/19 03:20:32;;;;;;;48.37;27.93;;;1.10;99.90;;;;;;6247127;23;20000;-78
2021/12/19 03:23:00;;;;;;;51.27;27.47;;;1.10;99.90;;;;;;6247044;23;20030;-78
2021/12/19 03:25:27;;;;;;;53.20;29.10;;;1.20;99.90;;;;;;6247152;23;20306;-78
2021/12/19 03:27:53;;;;;;;49.73;28.70;;;1.20;99.90;;;;;;6246761;23;20000;-79
2021/12/19 03:30:19;;;;;;;44.43;26.40;;;1.30;99.90;;;;;;6246941;23;20006;-79
2021/12/19 03:32:46;;;;;;;49.57;27.20;;;1.30;99.90;;;;;;6220131;23;20487;-78
2021/12/19 03:35:13;;;;;;;51.80;27.67;;;1.40;99.90;;;;;;6247018;23;20001;-78
2021/12/19 03:37:40;;;;;;;47.43;27.30;;;1.40;99.90;;;;;;6246758;23;20000;-78
2021/12/19 03:40:09;;;;;;;53.30;26.97;;;1.50;99.90;;;;;;6247065;23;20341;-78
2021/12/19 03:42:41;;;;;;;45.83;26.43;;;1.50;99.90;;;;;;6246786;23;20011;-78
2021/12/19 03:45:10;;;;;;;49.17;25.23;;;1.40;99.90;;;;;;6246894;23;20011;-78
2021/12/19 03:47:37;;;;;;;47.40;25.77;;;1.40;99.90;;;;;;6246738;23;20411;-78
2021/12/19 03:50:06;;;;;;;47.10;26.30;;;1.40;99.90;;;;;;6246867;23;20062;-78
2021/12/19 03:52:32;;;;;;;51.07;25.63;;;1.50;99.90;;;;;;6220140;23;20008;-78
2021/12/19 03:54:58;;;;;;;53.27;25.87;;;1.60;99.90;;;;;;6246915;23;20123;-79
2021/12/19 03:57:24;;;;;;;44.43;25.13;;;1.60;99.90;;;;;;6246769;23;20504;-79
2021/12/19 03:59:50;;;;;;;45.17;25.53;;;1.60;99.90;;;;;;6246072;23;20078;-78
2021/12/19 04:02:27;;;;;;;45.50;25.00;;;1.60;99.90;;;;;;6219993;23;20344;-78
2021/12/19 04:04:58;;;;;;;40.93;24.70;;;1.70;99.90;;;;;;6246834;23;20004;-78
2021/12/19 04:07:28;;;;;;;49.03;25.77;;;1.70;99.90;;;;;;6246792;23;20000;-78
2021/12/19 04:09:53;;;;;;;41.13;24.33;;;1.70;99.90;;;;;;6246766;23;20004;-79
2021/12/19 04:12:23;;;;;;;46.17;24.63;;;1.80;99.90;;;;;;6246845;23;20066;-78
2021/12/19 04:14:48;;;;;;;44.73;24.50;;;1.80;99.90;;;;;;6246785;23;19996;-79
2021/12/19 04:17:14;;;;;;;50.57;26.07;;;1.90;99.90;;;;;;6246750;23;20007;-78
2021/12/19 04:19:40;;;;;;;41.43;24.43;;;1.90;99.90;;;;;;6245136;23;20374;-78
2021/12/19 04:22:06;;;;;;;38.30;23.80;;;1.90;99.90;;;;;;6245110;23;20091;-79
2021/12/19 04:24:31;;;;;;;41.30;24.30;;;2.00;99.90;;;;;;6246538;23;20386;-78
2021/12/19 04:26:57;;;;;;;39.80;23.53;;;2.00;99.90;;;;;;6246249;23;20332;-78
2021/12/19 04:29:24;;;;;;;39.23;22.80;;;2.00;99.90;;;;;;6246513;23;20004;-78
2021/12/19 04:31:51;;;;;;;43.73;23.87;;;2.10;99.90;;;;;;6219447;23;20004;-79
2021/12/19 04:34:18;;;;;;;40.17;22.93;;;2.10;99.90;;;;;;6219612;23;20000;-78
2021/12/19 04:36:47;;;;;;;36.20;23.00;;;2.10;99.90;;;;;;6246351;23;20041;-78
2021/12/19 04:42:36;;;;;;;40.43;23.73;;;2.20;99.90;;;;;;6247186;23;20008;-78
2021/12/19 04:58:01;;;;;;;36.87;21.90;;;2.20;99.90;;;;;;6247035;23;20121;-79
2021/12/19 05:00:44;;;;;;;40.13;23.20;;;2.20;99.90;;;;;;6245739;23;20010;-79
2021/12/19 05:03:29;;;;;;;42.00;21.83;;;2.30;99.90;;;;;;6218984;23;20459;-79
2021/12/19 05:16:30;;;;;;;36.03;19.87;;;2.00;99.90;;;;;;6246312;23;20411;-79
2021/12/19 05:19:03;;;;;;;33.23;20.43;;;2.00;99.90;;;;;;6219040;23;20047;-79
2021/12/19 05:21:29;;;;;;;31.50;18.93;;;2.00;99.90;;;;;;6219213;23;20015;-79
2021/12/19 05:26:25;;;;;;;25.27;17.87;;;1.90;99.90;;;;;;6247782;23;20515;-79
2021/12/19 05:28:52;;;;;;;29.10;18.07;;;1.90;99.90;;;;;;6245827;23;20024;-79
2021/12/19 05:31:19;;;;;;;24.07;16.10;;;1.90;99.90;;;;;;6245963;23;19996;-79
2021/12/19 05:33:46;;;;;;;23.33;15.67;;;1.90;99.90;;;;;;6219051;23;20079;-79
2021/12/19 05:45:11;;;;;;;22.80;15.67;;;1.90;99.90;;;;;;6246587;23;20587;-79
2021/12/19 05:47:00;;;;;;;30.77;15.97;;;1.90;99.90;;;;;;6245289;23;20444;-79
2021/12/19 05:49:26;;;;;;;26.13;16.67;;;1.80;99.90;;;;;;6245767;23;20000;-79
2021/12/19 05:51:52;;;;;;;30.67;17.77;;;1.80;99.90;;;;;;6245857;23;19997;-79
2021/12/19 05:54:18;;;;;;;26.30;17.17;;;1.80;99.90;;;;;;6244115;23;20062;-79
2021/12/19 05:56:45;;;;;;;24.50;16.87;;;1.80;99.90;;;;;;6245575;23;20011;-79
2021/12/19 05:59:12;;;;;;;24.87;15.97;;;1.80;99.90;;;;;;6245882;23;20000;-79
2021/12/19 06:01:38;;;;;;;23.03;15.47;;;1.80;99.90;;;;;;6245760;23;20054;-79
2021/12/19 06:04:04;;;;;;;26.17;16.63;;;1.80;99.90;;;;;;6218711;23;20310;-79
2021/12/19 06:06:30;;;;;;;24.27;15.80;;;1.80;99.90;;;;;;6245485;23;20057;-79
2021/12/19 06:08:56;;;;;;;27.40;16.43;;;1.70;99.90;;;;;;6245532;23;20451;-79
2021/12/19 06:11:22;;;;;;;24.83;16.00;;;1.70;99.90;;;;;;6245630;23;20004;-79
2021/12/19 06:13:47;;;;;;;26.40;16.17;;;1.60;99.90;;;;;;6245615;23;20023;-79
2021/12/19 06:16:13;;;;;;;23.60;16.03;;;1.70;99.90;;;;;;6245756;23;20515;-79
2021/12/19 06:18:39;;;;;;;25.43;16.43;;;1.60;99.90;;;;;;6245518;23;20474;-79
2021/12/19 06:21:05;;;;;;;28.47;16.87;;;1.70;99.90;;;;;;6245633;23;20379;-79
2021/12/19 06:23:32;;;;;;;26.17;17.17;;;1.60;99.90;;;;;;6220489;23;20008;-79
2021/12/19 06:25:58;;;;;;;25.80;17.13;;;1.60;99.90;;;;;;6247691;23;20027;-79
2021/12/19 06:28:23;;;;;;;27.80;17.27;;;1.50;99.90;;;;;;6247429;23;19996;-79
2021/12/19 06:30:49;;;;;;;26.83;16.70;;;1.60;99.90;;;;;;6247767;23;20004;-79
2021/12/19 06:33:15;;;;;;;27.17;18.17;;;1.60;99.90;;;;;;6247694;23;20007;-79
2021/12/19 06:35:41;;;;;;;31.90;17.87;;;1.60;99.90;;;;;;6247520;23;20361;-79
2021/12/19 06:38:07;;;;;;;27.77;17.70;;;1.60;99.90;;;;;;6247278;23;19996;-79
2021/12/19 06:40:34;;;;;;;25.97;17.57;;;1.60;99.90;;;;;;6220641;23;20012;-79
2021/12/19 06:43:00;;;;;;;26.57;17.50;;;1.60;99.90;;;;;;6247259;23;20015;-79
2021/12/19 06:45:26;;;;;;;25.93;17.70;;;1.60;99.90;;;;;;6247356;23;20000;-79
2021/12/19 06:47:52;;;;;;;25.90;17.93;;;1.60;99.90;;;;;;6247298;23;20000;-79
2021/12/19 06:50:19;;;;;;;23.70;15.60;;;1.50;99.90;;;;;;6247463;23;20030;-79
2021/12/19 06:52:46;;;;;;;23.73;15.43;;;1.50;99.90;;;;;;6247389;23;20004;-79
2021/12/19 06:55:15;;;;;;;22.33;15.67;;;1.40;99.90;;;;;;6220758;23;20313;-79
2021/12/19 06:57:41;;;;;;;23.87;16.53;;;1.40;99.90;;;;;;6247327;23;20007;-79
2021/12/19 07:00:14;;;;;;;24.03;16.77;;;1.40;99.90;;;;;;6247462;23;20004;-79
2021/12/19 07:02:39;;;;;;;;;;;1.50;99.90;;;;;;6247770;23;20047;-79
2021/12/19 07:05:06;;;;;;;22.73;16.13;;;1.50;99.90;;;;;;6220447;23;19899;-78
2021/12/19 07:07:32;;;;;;;27.23;16.50;;;1.50;99.90;;;;;;6247161;23;20084;-78
2021/12/19 07:09:58;;;;;;;20.27;15.47;;;1.50;99.90;;;;;;6220374;23;20053;-79
2021/12/19 07:12:26;;;;;;;25.13;16.87;;;1.50;99.90;;;;;;6247278;23;20004;-78
2021/12/19 07:14:56;;;;;;;23.57;15.27;;;1.40;99.90;;;;;;6247292;23;20027;-79
2021/12/19 07:17:23;;;;;;;35.20;16.00;;;1.40;99.90;;;;;;6220375;23;20095;-79
2021/12/19 07:19:49;;;;;;;24.30;16.07;;;1.40;99.90;;;;;;6247268;23;20028;-78
2021/12/19 07:22:15;;;;;;;24.77;17.00;;;1.30;99.90;;;;;;6220350;23;20014;-78
2021/12/19 07:24:41;;;;;;;31.90;18.30;;;1.30;99.90;;;;;;6220384;23;20391;-78
2021/12/19 07:27:06;;;;;;;25.47;18.07;;;1.30;99.90;;;;;;6219926;23;20020;-78
2021/12/19 07:29:32;;;;;;;27.43;16.60;;;1.40;99.90;;;;;;6247191;23;20000;-78
2021/12/19 07:31:58;;;;;;;25.47;16.43;;;1.30;99.90;;;;;;6220267;23;20000;-79
2021/12/19 07:34:36;;;;;;;26.93;16.20;;;1.40;99.90;;;;;;6219931;23;20000;-78
2021/12/19 07:37:02;;;;;;;27.13;16.77;;;1.40;99.90;;;;;;6246812;23;20027;-79
2021/12/19 07:41:58;;;;;;;25.60;15.73;;;1.30;99.90;;;;;;6248519;23;20062;-78
2021/12/19 07:44:24;;;;;;;24.80;15.33;;;1.30;99.90;;;;;;6245230;23;20020;-79
2021/12/19 07:46:50;;;;;;;22.73;15.67;;;1.20;99.90;;;;;;6246775;23;20083;-79
2021/12/19 07:49:16;;;;;;;26.00;16.33;;;1.20;99.90;;;;;;6246847;23;20007;-78
2021/12/19 07:51:42;;;;;;;25.13;16.50;;;1.30;99.90;;;;;;6246808;23;20000;-78
2021/12/19 07:54:08;;;;;;;29.53;16.80;;;1.30;99.90;;;;;;6246880;23;19996;-79
2021/12/19 07:56:34;;;;;;;31.47;18.07;;;1.30;99.90;;;;;;6246701;23;20070;-78
2021/12/19 07:59:00;;;;;;;28.03;17.93;;;1.30;99.90;;;;;;6246796;23;20050;-78
2021/12/19 08:01:26;;;;;;;29.37;18.03;;;1.30;99.90;;;;;;6246813;23;20001;-78
2021/12/19 08:03:52;;;;;;;30.57;19.37;;;1.20;99.90;;;;;;6246766;23;20008;-78
2021/12/19 08:06:18;;;;;;;28.07;18.80;;;1.20;99.90;;;;;;6246617;23;20118;-79
2021/12/19 08:08:50;;;;;;;30.20;18.07;;;1.30;99.90;;;;;;6246848;23;20008;-79
2021/12/19 08:13:59;;;;;;;31.43;17.93;;;1.20;99.90;;;;;;6246694;23;20014;-78
2021/12/19 08:16:25;;;;;;;27.83;18.77;;;1.30;99.90;;;;;;6246592;23;20082;-78
2021/12/19 08:18:52;;;;;;;32.43;19.30;;;1.30;99.90;;;;;;6246590;23;20305;-78
2021/12/19 08:21:19;;;;;;;28.23;18.60;;;1.30;99.90;;;;;;6219625;23;20428;-79
2021/12/19 08:23:45;;;;;;;27.80;17.73;;;1.40;99.90;;;;;;6246674;23;20000;-78
2021/12/19 08:26:12;;;;;;;28.07;17.77;;;1.40;99.90;;;;;;6246350;23;20012;-78
2021/12/19 08:28:37;;;;;;;31.73;18.10;;;1.50;99.90;;;;;;6246541;23;20000;-79
2021/12/19 08:31:03;;;;;;;23.30;16.97;;;1.50;99.90;;;;;;6246534;23;20535;-78
2021/12/19 08:33:29;;;;;;;22.33;15.57;;;1.60;99.90;;;;;;6246598;23;20000;-78
2021/12/19 08:35:55;;;;;;;22.03;14.73;;;1.60;99.90;;;;;;6219555;23;20000;-78
2021/12/19 08:38:21;;;;;;;20.67;15.27;;;1.60;99.90;;;;;;6246391;23;20004;-78
2021/12/19 08:40:49;;;;;;;25.47;15.57;;;1.50;99.90;;;;;;6219528;23;20004;-78
2021/12/19 08:43:15;;;;;;;26.07;16.30;;;1.50;99.90;;;;;;6244623;23;20016;-78
2021/12/19 08:45:40;;;;;;;23.13;15.50;;;1.50;99.90;;;;;;6245935;23;20459;-78
2021/12/19 08:48:06;;;;;;;21.40;14.10;;;1.60;99.90;;;;;;6244570;23;20008;-74
2021/12/19 08:50:33;;;;;;;22.60;15.10;;;1.60;99.90;;;;;;6245966;23;20011;-74
2021/12/19 08:52:59;;;;;;;24.80;16.83;;;1.60;99.90;;;;;;6219094;23;20004;-74
2021/12/19 08:55:25;;;;;;;24.67;15.90;;;1.60;99.90;;;;;;6246333;23;20454;-74
2021/12/19 08:57:50;;;;;;;28.23;17.10;;;1.60;99.90;;;;;;6245700;23;20024;-74
2021/12/19 09:00:18;;;;;;;26.90;17.53;;;1.60;99.90;;;;;;6218873;23;20001;-74
2021/12/19 09:02:50;;;;;;;27.80;17.43;;;1.60;99.90;;;;;;6246085;23;20000;-74
2021/12/19 09:05:16;;;;;;;24.05;16.00;;;1.60;99.90;;;;;;6245824;23;20001;-74
2021/12/19 09:07:42;;;;;;;21.47;15.73;;;1.70;99.90;;;;;;6245787;23;20000;-74
2021/12/19 09:10:09;;;;;;;24.10;16.50;;;1.80;99.90;;;;;;6246014;23;20011;-74
2021/12/19 09:12:36;;;;;;;26.13;17.87;;;1.70;99.90;;;;;;6218987;23;20379;-74
2021/12/19 09:15:04;;;;;;;22.97;16.67;;;1.70;99.90;;;;;;6245952;23;19996;-74
2021/12/19 09:17:30;;;;;;;27.50;18.83;;;1.70;99.90;;;;;;6218772;23;20331;-74
2021/12/19 09:19:55;;;;;;;26.93;17.13;;;1.70;99.90;;;;;;6218561;23;20012;-74
2021/12/19 09:22:21;;;;;;;25.53;16.83;;;1.70;99.90;;;;;;6245051;23;20318;-74
2021/12/19 09:24:47;;;;;;;22.63;16.97;;;1.70;99.90;;;;;;6244493;23;20000;-74
2021/12/19 09:27:13;;;;;;;22.23;15.63;;;1.70;99.90;;;;;;6244513;23;20083;-74
2021/12/19 09:29:39;;;;;;;26.63;17.43;;;1.80;99.90;;;;;;6244756;23;20412;-74
2021/12/19 09:32:05;;;;;;;22.63;16.43;;;1.80;99.90;;;;;;6217680;23;20007;-74
2021/12/19 09:34:32;;;;;;;23.77;15.77;;;1.90;99.90;;;;;;6244664;23;20071;-74
2021/12/19 09:36:58;;;;;;;21.43;16.20;;;1.90;99.90;;;;;;6244455;23;20100;-74
2021/12/19 09:39:25;;;;;;;26.57;18.20;;;2.00;99.90;;;;;;6245438;23;20008;-74
2021/12/19 09:42:01;;;;;;;28.40;18.63;;;1.90;99.90;;;;;;6245595;23;20000;-74
2021/12/19 09:44:27;;;;;;;23.27;16.90;;;1.90;99.90;;;;;;6244851;23;20022;-74
2021/12/19 09:46:53;;;;;;;22.67;17.00;;;2.00;99.90;;;;;;6245395;23;20031;-74
2021/12/19 09:49:20;;;;;;;24.97;17.53;;;2.00;99.90;;;;;;6218245;23;20004;-73
2021/12/19 09:51:48;;;;;;;25.30;17.27;;;2.10;99.90;;;;;;6245298;23;19996;-74
2021/12/19 09:54:14;;;;;;;22.13;15.27;;;2.10;99.90;;;;;;6245080;23;20000;-74
2021/12/19 09:56:42;;;;;;;21.83;14.83;;;2.20;99.90;;;;;;6244080;23;20011;-74
2021/12/19 09:59:16;;;;;;;23.00;16.10;;;2.30;99.90;;;;;;6244744;23;20000;-74
2021/12/19 10:01:42;;;;;;;22.07;16.90;;;2.20;99.90;;;;;;6243484;23;20011;-73
2021/12/19 10:04:26;;;;;;;22.50;16.87;;;2.20;99.90;;;;;;6243591;23;20083;-74
2021/12/19 10:07:09;;;;;;;24.33;17.30;;;2.20;99.90;;;;;;6244499;23;20001;-74
2021/12/19 10:10:02;;;;;;;22.03;17.00;;;2.40;99.90;;;;;;6244305;23;20573;-74
2021/12/19 10:12:48;;;;;;;23.53;16.90;;;2.40;99.90;;;;;;6244555;23;20075;-74
2021/12/19 10:15:19;;;;;;;26.43;17.63;;;2.50;99.90;;;;;;6217832;23;20008;-73
2021/12/19 10:17:46;;;;;;;28.23;18.30;;;2.40;99.90;;;;;;6245167;23;20007;-74
2021/12/19 10:20:15;;;;;;;33.17;20.70;;;2.50;99.90;;;;;;6244572;23;20011;-74
2021/12/19 10:22:44;;;;;;;31.83;21.00;;;2.50;99.90;;;;;;6217922;23;20917;-74
2021/12/19 10:25:24;;;;;;;29.97;21.43;;;2.60;99.90;;;;;;6245276;23;20031;-74
2021/12/19 10:27:49;;;;;;;35.30;22.50;;;2.60;99.90;;;;;;6244725;23;20007;-74
2021/12/19 10:30:19;;;;;;;35.43;22.80;;;2.50;99.90;;;;;;6244888;23;20000;-74
2021/12/19 10:32:54;;;;;;;45.50;27.47;;;2.60;99.90;;;;;;6218743;23;20439;-79
2021/12/19 10:35:30;;;;;;;45.90;27.30;;;2.50;99.90;;;;;;6245697;23;20000;-78
2021/12/19 10:37:57;;;;;;;45.47;26.07;;;2.50;99.90;;;;;;6245150;23;20004;-79
2021/12/19 10:40:23;;;;;;;44.90;25.90;;;2.60;99.90;;;;;;6245753;23;20004;-78
2021/12/19 10:42:58;;;;;;;45.40;25.70;;;2.60;99.90;;;;;;6245533;23;20008;-78
2021/12/19 10:45:32;;;;;;;43.67;25.33;;;2.60;99.90;;;;;;6245590;23;20004;-78
2021/12/19 10:48:24;;;;;;;41.97;24.43;;;2.60;99.90;;;;;;6245182;23;20004;-78
2021/12/19 10:50:53;;;;;;;44.60;23.45;;;2.70;99.90;;;;;;6244653;23;20087;-78
2021/12/19 10:53:24;;;;;;;38.73;23.13;;;2.70;99.90;;;;;;6245049;23;20000;-79
2021/12/19 10:55:51;;;;;;;38.13;23.45;;;2.70;99.90;;;;;;6245281;23;19996;-78
2021/12/19 10:58:21;;;;;;;39.23;23.07;;;2.80;99.90;;;;;;6244940;23;20000;-78
2021/12/19 11:01:07;;;;;;;41.00;23.17;;;2.80;99.90;;;;;;6244833;23;19996;-78
2021/12/19 11:03:39;;;;;;;42.17;23.50;;;2.90;99.90;;;;;;6245099;23;20024;-78
2021/12/19 11:06:23;;;;;;;34.50;20.97;;;2.90;99.90;;;;;;6244976;23;20004;-78
2021/12/19 11:08:52;;;;;;;35.57;22.70;;;2.90;99.90;;;;;;6246205;23;19996;-78
2021/12/19 11:11:32;;;;;;;40.13;24.43;;;2.90;99.90;;;;;;6246897;23;20432;-78
2021/12/19 11:13:58;;;;;;;38.10;23.03;;;3.00;99.90;;;;;;6247053;23;20000;-78
2021/12/19 11:16:24;;;;;;;36.87;22.70;;;3.10;99.90;;;;;;6246753;23;20039;-78
2021/12/19 11:18:50;;;;;;;38.83;22.10;;;3.10;99.90;;;;;;6246448;23;20049;-78
2021/12/19 11:21:18;;;;;;;44.70;23.03;;;3.20;99.90;;;;;;6245974;23;20011;-78
2021/12/19 11:23:44;;;;;;;39.83;23.53;;;3.20;99.90;;;;;;6219376;23;20018;-78
2021/12/19 11:26:10;;;;;;;40.23;22.67;;;3.20;99.90;;;;;;6218923;23;20036;-77
2021/12/19 11:28:36;;;;;;;44.50;22.90;;;3.20;99.90;;;;;;6245640;23;20003;-78
2021/12/19 11:31:02;;;;;;;44.03;24.47;;;3.10;99.90;;;;;;6245886;23;20000;-77
2021/12/19 11:34:03;;;;;;;38.47;21.90;;;3.10;99.90;;;;;;6219360;23;20415;-78
2021/12/19 11:36:35;;;;;;;37.90;21.23;;;3.20;99.90;;;;;;6245783;23;20011;-77
2021/12/19 11:39:04;;;;;;;39.93;22.17;;;3.10;99.90;;;;;;6246322;23;20024;-77
2021/12/19 11:41:31;;;;;;;41.60;22.80;;;3.10;99.90;;;;;;6219318;23;20010;-77
2021/12/19 11:44:01;;;;;;;38.67;22.20;;;3.10;99.90;;;;;;6246323;23;20074;-77
2021/12/19 11:46:45;;;;;;;45.13;23.57;;;3.20;99.90;;;;;;6245811;23;20010;-77
2021/12/19 11:49:17;;;;;;;37.40;22.77;;;3.10;99.90;;;;;;6246086;23;20007;-77
2021/12/19 11:51:43;;;;;;;39.53;22.90;;;3.20;99.90;;;;;;6219132;23;20001;-77
2021/12/19 11:54:18;;;;;;;46.23;24.37;;;3.20;99.90;;;;;;6219299;23;20016;-77
2021/12/19 11:57:09;;;;;;;43.27;23.20;;;3.30;99.90;;;;;;6246209;23;20004;-77
2021/12/19 11:59:38;;;;;;;42.30;23.43;;;3.40;99.90;;;;;;6219393;23;20004;-77
2021/12/19 12:02:23;;;;;;;40.90;23.77;;;3.40;99.90;;;;;;6246132;23;20015;-77
2021/12/19 12:05:14;;;;;;;42.73;23.87;;;3.40;99.90;;;;;;6246208;23;19996;-77
2021/12/19 12:08:04;;;;;;;44.57;24.70;;;3.50;99.90;;;;;;6245996;23;20004;-77
2021/12/19 12:10:54;;;;;;;38.77;23.57;;;3.50;99.90;;;;;;6245997;23;20010;-78
2021/12/19 12:13:33;;;;;;;41.20;24.57;;;3.50;99.90;;;;;;6245908;23;20006;-77
2021/12/19 12:16:32;;;;;;;47.83;25.70;;;3.50;99.90;;;;;;6245978;23;20432;-77
2021/12/19 12:19:04;;;;;;;47.27;25.97;;;3.50;99.90;;;;;;6246005;23;20003;-77
2021/12/19 12:24:07;;;;;;;54.20;28.43;;;3.50;99.90;;;;;;6249722;23;20083;-77
2021/12/19 12:26:39;;;;;;;51.90;27.13;;;3.50;99.90;;;;;;6245650;23;20004;-77
2021/12/19 12:29:05;;;;;;;52.28;28.20;;;3.50;99.90;;;;;;6246398;23;20000;-78
2021/12/19 12:31:32;;;;;;;56.50;29.90;;;3.50;99.90;;;;;;6219463;23;20462;-77
2021/12/19 12:33:58;;;;;;;50.60;27.83;;;3.50;99.90;;;;;;6246114;23;20447;-77
2021/12/19 12:36:24;;;;;;;53.37;29.00;;;3.50;99.90;;;;;;6245980;23;20012;-78
2021/12/19 12:38:52;;;;;;;56.10;30.83;;;3.50;99.90;;;;;;6246211;23;20057;-78
2021/12/19 12:41:40;;;;;;;59.20;30.87;;;3.60;99.90;;;;;;6246606;23;20000;-78
2021/12/19 12:44:08;;;;;;;64.30;31.83;;;3.50;99.90;;;;;;6219061;23;20116;-77
2021/12/19 12:46:34;;;;;;;60.00;31.80;;;3.50;99.90;;;;;;6246130;23;20004;-78
2021/12/19 12:49:05;;;;;;;66.00;32.37;;;3.50;99.90;;;;;;6246188;23;20336;-77
2021/12/19 12:51:47;;;;;;;61.97;33.83;;;3.60;99.90;;;;;;6245990;23;20055;-78
2021/12/19 12:54:22;;;;;;;65.55;32.85;;;3.50;99.90;;;;;;6246095;23;19992;-77
2021/12/19 12:56:51;;;;;;;61.53;31.53;;;3.60;99.90;;;;;;6245744;23;20556;-77
2021/12/19 12:59:23;;;;;;;67.10;32.47;;;3.70;99.90;;;;;;6245930;23;20000;-78
2021/12/19 13:01:55;;;;;;;66.78;34.05;;;3.70;99.90;;;;;;6245669;23;20004;-78
2021/12/19 13:04:26;;;;;;;61.17;31.63;;;3.70;99.90;;;;;;6245946;23;20447;-78
2021/12/19 13:07:10;;;;;;;68.47;34.60;;;3.70;99.90;;;;;;6218411;23;20095;-78
2021/12/19 13:09:40;;;;;;;70.43;34.07;;;3.70;99.90;;;;;;6245741;23;19996;-77
2021/12/19 13:12:26;;;;;;;63.37;33.23;;;3.70;99.90;;;;;;6245374;23;20000;-78
2021/12/19 13:15:11;;;;;;;69.30;34.27;;;3.70;99.90;;;;;;6218530;23;20000;-79
2021/12/19 13:17:42;;;;;;;71.53;35.80;;;3.70;99.90;;;;;;6245354;23;20046;-78
2021/12/19 13:20:25;;;;;;;86.32;44.17;;;3.70;99.90;;;;;;6245573;23;20011;-77
2021/12/19 13:22:57;;;;;;;78.70;38.33;;;3.70;99.90;;;;;;6245377;23;20000;-78
2021/12/19 13:25:37;;;;;;;90.22;43.85;;;3.60;99.90;;;;;;6245982;23;20000;-78
2021/12/19 13:28:06;;;;;;;82.73;37.73;;;3.60;99.90;;;;;;6245934;23;20000;-78
2021/12/19 13:30:37;;;;;;;83.77;39.27;;;3.60;99.90;;;;;;6245725;23;20006;-78
2021/12/19 13:33:12;;;;;;;84.87;40.80;;;3.60;99.90;;;;;;6245958;23;20010;-78
2021/12/19 13:35:48;;;;;;;74.23;36.67;;;3.60;99.90;;;;;;6245834;23;19996;-78
2021/12/19 13:38:25;;;;;;;85.87;40.20;;;3.60;99.90;;;;;;6245878;23;20328;-78
2021/12/19 13:41:03;;;;;;;80.40;38.83;;;3.60;99.90;;;;;;6245864;23;20000;-78
2021/12/19 13:43:34;;;;;;;75.03;36.93;;;3.60;99.90;;;;;;6218247;23;20069;-79
2021/12/19 13:46:09;;;;;;;80.17;39.47;;;3.70;99.90;;;;;;6244434;23;20011;-78
2021/12/19 13:48:39;;;;;;;80.77;38.97;;;3.70;99.90;;;;;;6217779;23;20000;-78
2021/12/19 13:51:05;;;;;;;77.43;38.77;;;3.70;99.90;;;;;;6244557;23;20424;-78
2021/12/19 13:53:33;;;;;;;83.83;40.30;;;3.70;99.90;;;;;;6244506;23;20080;-77
2021/12/19 13:56:37;;;;;;;87.63;42.17;;;3.70;99.90;;;;;;6217648;23;20001;-78
2021/12/19 13:59:05;;;;;;;82.57;39.90;;;3.60;99.90;;;;;;6122274;23;20006;-78